Time;durP1;ratioP1;P1;durP2;ratioP2;P2;SDS_P1;SDS_P2;PMS_P1;PMS_P2;Temp;Humidity;BMP_temperature;BMP_pressure;BME280_temperature;BME280_humidity;BME280_pressure;Samples;Min_cycle;Max_cycle;Signal;HPM_P1;HPM_P2
2022/08/18 00:00:22;;;;;;;10.86;9.74;;;;;;;25.14;57.26;100029.80;466324;113;922554;-75
2022/08/18 00:01:25;;;;;;;10.78;9.79;;;;;;;25.15;57.29;100037.02;466491;113;922704;-75
2022/08/18 00:02:31;;;;;;;10.75;9.69;;;;;;;25.16;57.37;100043.43;466308;113;922553;-75
2022/08/18 00:03:49;;;;;;;10.91;9.86;;;;;;;25.15;57.41;100037.02;466084;113;922953;-75
2022/08/18 00:04:55;;;;;;;11.97;9.79;;;;;;;25.15;57.44;100037.02;462561;113;922530;-75
2022/08/18 00:05:59;;;;;;;11.17;10.14;;;;;;;25.15;57.43;100044.57;455424;114;922522;-75
2022/08/18 00:07:03;;;;;;;10.84;9.83;;;;;;;25.15;57.51;100041.78;455653;116;922917;-75
2022/08/18 00:08:06;;;;;;;10.72;9.71;;;;;;;25.14;57.51;100046.53;455593;116;922682;-75
2022/08/18 00:09:10;;;;;;;12.22;10.11;;;;;;;25.13;57.50;100041.30;455664;116;923032;-75
2022/08/18 00:10:13;;;;;;;11.20;9.83;;;;;;;25.13;57.46;100047.70;455533;116;922862;-75
2022/08/18 00:11:19;;;;;;;11.03;9.88;;;;;;;25.12;57.44;100051.64;455145;116;923060;-75
2022/08/18 00:12:25;;;;;;;11.02;9.93;;;;;;;25.11;57.42;100049.98;455563;116;922848;-75
2022/08/18 00:13:28;;;;;;;14.07;11.01;;;;;;;25.12;57.44;100048.02;455393;116;930634;-75
2022/08/18 00:14:32;;;;;;;11.41;10.40;;;;;;;25.10;57.45;100039.97;455665;116;922630;-75
2022/08/18 00:15:35;;;;;;;10.52;9.71;;;;;;;25.08;57.41;100047.86;456803;116;923214;-75
2022/08/18 00:16:40;;;;;;;11.78;10.48;;;;;;;25.08;57.42;100050.66;454866;116;922607;-75
2022/08/18 00:17:43;;;;;;;9.91;9.20;;;;;;;25.06;57.46;100047.35;457321;116;922589;-75
2022/08/18 00:18:46;;;;;;;13.94;10.53;;;;;;;25.06;57.48;100049.31;457394;115;922728;-75
2022/08/18 00:19:49;;;;;;;11.08;9.61;;;;;;;25.06;57.50;100046.53;457351;116;922571;-75
2022/08/18 00:20:53;;;;;;;10.51;9.68;;;;;;;25.06;57.56;100046.53;457273;116;922600;-75
2022/08/18 00:21:56;;;;;;;10.05;9.34;;;;;;;25.05;57.54;100048.49;457355;116;922589;-75
2022/08/18 00:22:59;;;;;;;10.90;9.68;;;;;;;25.06;57.60;100035.37;457209;116;922564;-75
2022/08/18 00:24:03;;;;;;;12.01;9.92;;;;;;;25.06;57.61;100046.53;457343;115;922866;-75
2022/08/18 00:25:11;;;;;;;11.35;9.84;;;;;;;25.06;57.65;100049.31;457268;115;922588;-75
2022/08/18 00:26:15;;;;;;;10.69;9.78;;;;;;;25.05;57.65;100045.70;457083;114;922660;-75
2022/08/18 00:27:21;;;;;;;11.30;10.46;;;;;;;25.05;57.70;100050.45;457339;116;922683;-75
2022/08/18 00:28:26;;;;;;;9.92;9.18;;;;;;;25.05;57.70;100047.67;457027;115;923236;-75
2022/08/18 00:29:29;;;;;;;10.98;9.99;;;;;;;25.04;57.72;100046.02;457420;115;922593;-75
2022/08/18 00:30:33;;;;;;;10.99;10.13;;;;;;;25.04;57.69;100049.63;459450;115;922764;-75
2022/08/18 00:31:36;;;;;;;10.96;9.83;;;;;;;25.03;57.72;100056.35;457169;114;922725;-75
2022/08/18 00:32:42;;;;;;;11.15;9.96;;;;;;;25.04;57.78;100051.59;457213;115;930564;-75
2022/08/18 00:33:45;;;;;;;11.86;10.75;;;;;;;25.04;57.72;100051.59;458849;113;922705;-75
2022/08/18 00:34:49;;;;;;;9.94;9.13;;;;;;;25.03;57.80;100049.98;466494;113;922606;-75
2022/08/18 00:35:52;;;;;;;11.44;10.04;;;;;;;25.03;57.80;100056.35;466412;113;922596;-75
2022/08/18 00:36:55;;;;;;;10.10;9.28;;;;;;;25.03;57.76;100049.98;466335;113;922997;-75
2022/08/18 00:38:01;;;;;;;10.72;9.76;;;;;;;25.02;57.83;100048.33;466350;113;922648;-75
2022/08/18 00:39:04;;;;;;;10.62;9.68;;;;;;;25.02;57.86;100054.73;466261;113;923776;-75
2022/08/18 00:40:11;;;;;;;10.66;9.71;;;;;;;25.02;57.98;100054.73;466346;113;922689;-75
2022/08/18 00:41:14;;;;;;;10.11;9.29;;;;;;;25.02;57.92;100059.48;466163;113;930449;-75
2022/08/18 00:42:24;;;;;;;11.22;9.85;;;;;;;25.01;57.98;100058.66;457227;115;922589;-75
2022/08/18 00:43:45;;;;;;;12.68;10.45;;;;;;;25.02;57.96;100057.52;458838;113;923269;-75
2022/08/18 00:44:48;;;;;;;11.17;10.13;;;;;;;25.01;57.97;100055.88;466296;113;922612;-74
2022/08/18 00:45:52;;;;;;;10.82;9.89;;;;;;;25.01;57.99;100055.05;466485;113;922549;-75
2022/08/18 00:46:55;;;;;;;11.64;10.64;;;;;;;25.01;57.98;100055.88;466460;113;922857;-75
2022/08/18 00:47:59;;;;;;;11.38;9.58;;;;;;;25.00;58.00;100051.44;466418;113;922593;-75
2022/08/18 00:49:03;;;;;;;11.69;10.42;;;;;;;25.01;58.00;100055.88;464298;113;923330;-74
2022/08/18 00:50:07;;;;;;;11.05;10.11;;;;;;;25.01;57.99;100049.47;466007;113;922653;-75
2022/08/18 00:51:16;;;;;;;19.39;10.46;;;;;;;25.00;57.96;100056.19;466084;113;922588;-75
2022/08/18 00:52:21;;;;;;;10.61;9.73;;;;;;;24.99;58.05;100058.15;466295;113;922585;-75
2022/08/18 00:53:40;;;;;;;10.67;9.79;;;;;;;24.99;58.01;100051.75;466267;113;922522;-75
2022/08/18 00:54:45;;;;;;;10.89;10.10;;;;;;;24.98;58.03;100053.71;466251;113;922471;-75
2022/08/18 00:55:49;;;;;;;11.32;10.44;;;;;;;24.97;58.02;100049.30;466309;113;922721;-75
2022/08/18 00:56:59;;;;;;;11.19;10.23;;;;;;;24.96;58.00;100052.41;466163;113;930103;-75
2022/08/18 00:58:05;;;;;;;10.56;9.60;;;;;;;24.96;58.04;100056.02;466260;113;923172;-74
2022/08/18 00:59:41;;;;;;;11.92;9.88;;;;;;;24.95;58.09;100051.58;466226;113;922629;-74
2022/08/18 01:00:46;;;;;;;10.61;9.60;;;;;;;24.96;58.12;100057.98;466211;113;922558;-75
2022/08/18 01:01:52;;;;;;;11.53;10.48;;;;;;;24.93;58.17;100054.69;466307;113;922535;-75
2022/08/18 01:02:59;;;;;;;11.19;10.32;;;;;;;24.93;58.17;100043.53;466359;113;922692;-75
2022/08/18 01:04:06;;;;;;;11.03;10.04;;;;;;;24.92;58.29;100044.67;466374;113;922593;-75
2022/08/18 01:05:15;;;;;;;10.84;9.83;;;;;;;24.93;58.19;100053.86;463065;113;922607;-75
2022/08/18 01:06:40;;;;;;;10.57;9.62;;;;;;;24.93;58.17;100053.86;450368;114;922655;-75
2022/08/18 01:07:45;;;;;;;10.93;10.07;;;;;;;24.93;58.23;100048.28;455456;116;922596;-75
2022/08/18 01:08:48;;;;;;;10.59;9.71;;;;;;;24.91;58.22;100045.84;455431;116;922467;-74
2022/08/18 01:09:52;;;;;;;10.88;9.96;;;;;;;24.90;58.27;100052.56;455643;116;922862;-75
2022/08/18 01:10:56;;;;;;;11.08;10.04;;;;;;;24.88;58.32;100043.68;455558;116;923249;-75
2022/08/18 01:11:59;;;;;;;10.66;9.89;;;;;;;24.88;58.39;100049.26;455575;116;922570;-74
2022/08/18 01:13:04;;;;;;;10.79;9.98;;;;;;;24.89;58.50;100050.08;452563;116;922702;-75
2022/08/18 01:14:09;;;;;;;10.38;9.55;;;;;;;24.89;58.57;100044.50;455689;116;922676;-75
2022/08/18 01:15:14;;;;;;;11.89;10.69;;;;;;;24.89;58.58;100042.54;456084;116;922671;-75
2022/08/18 01:22:00;;;;;;;11.14;10.28;;;;;;;24.83;58.36;100040.18;457047;116;922597;-74
2022/08/18 01:23:13;;;;;;;12.50;10.18;;;;;;;24.81;58.42;100037.70;454371;116;922671;-74
2022/08/18 01:24:18;;;;;;;11.47;10.61;;;;;;;24.80;58.53;100038.05;457170;116;922599;-74
2022/08/18 01:26:48;;;;;;;11.14;10.22;;;;;;;24.80;58.68;100032.48;457104;114;922615;-75
2022/08/18 01:27:51;;;;;;;11.43;10.44;;;;;;;24.81;58.76;100034.13;457167;116;922878;-75
2022/08/18 01:28:54;;;;;;;11.38;10.38;;;;;;;24.82;58.84;100041.33;457296;115;922633;-74
2022/08/18 01:30:01;;;;;;;10.73;9.92;;;;;;;24.82;58.84;100035.74;458730;115;930150;-74
2022/08/18 01:31:07;;;;;;;10.95;10.07;;;;;;;24.82;58.90;100030.17;457715;114;923056;-74
2022/08/18 01:32:12;;;;;;;11.18;10.41;;;;;;;24.82;58.96;100036.57;457192;116;922711;-75
2022/08/18 01:33:17;;;;;;;12.05;10.86;;;;;;;24.80;58.88;100030.52;457190;116;922982;-75
2022/08/18 01:34:23;;;;;;;10.75;9.99;;;;;;;24.79;58.81;100026.08;451037;114;923007;-74
2022/08/18 01:35:26;;;;;;;11.67;10.66;;;;;;;24.78;58.81;100031.97;449221;118;930466;-75
2022/08/18 01:36:30;;;;;;;11.45;10.52;;;;;;;24.76;58.80;100031.45;449406;116;922746;-74
2022/08/18 01:37:33;;;;;;;11.01;10.14;;;;;;;24.76;58.77;100035.06;449476;118;922656;-74
2022/08/18 01:38:37;;;;;;;11.84;10.85;;;;;;;24.76;58.69;100034.24;449409;118;922935;-74
2022/08/18 01:39:40;;;;;;;11.23;10.27;;;;;;;24.75;58.67;100027.05;449455;118;922730;-74
2022/08/18 01:40:46;;;;;;;11.44;10.48;;;;;;;24.74;58.65;100031.80;447110;118;922581;-74
2022/08/18 01:41:51;;;;;;;12.21;11.24;;;;;;;24.74;58.59;100030.97;446994;118;922434;-75
2022/08/18 01:42:55;;;;;;;10.71;9.80;;;;;;;24.73;58.62;100029.33;449488;118;922576;-74
2022/08/18 01:44:00;;;;;;;13.08;11.16;;;;;;;24.72;58.71;100024.89;449311;117;922549;-75
2022/08/18 01:45:06;;;;;;;12.84;10.98;;;;;;;24.70;58.75;100025.20;449385;118;930413;-75
2022/08/18 01:46:11;;;;;;;11.25;10.26;;;;;;;24.71;58.76;100026.02;449296;116;922654;-75
2022/08/18 01:47:15;;;;;;;11.81;10.86;;;;;;;24.69;58.82;100018.00;449438;118;922663;-74
2022/08/18 01:48:18;;;;;;;12.16;11.06;;;;;;;24.69;58.86;100025.55;449299;117;922648;-75
2022/08/18 01:49:21;;;;;;;11.88;10.89;;;;;;;24.68;58.90;100033.08;449426;118;930538;-75
2022/08/18 01:50:25;;;;;;;11.14;10.10;;;;;;;24.66;58.96;100026.17;449452;117;922780;-74
2022/08/18 01:51:31;;;;;;;12.04;10.85;;;;;;;24.66;59.06;100026.17;449436;116;922517;-74
2022/08/18 01:52:36;;;;;;;12.38;11.23;;;;;;;24.65;59.11;100030.09;448557;117;922647;-74
2022/08/18 01:53:39;;;;;;;12.35;9.91;;;;;;;24.63;59.14;100027.66;449534;117;922903;-74
2022/08/18 01:54:42;;;;;;;11.84;10.73;;;;;;;24.63;59.20;100036.02;449578;118;922646;-75
2022/08/18 01:55:45;;;;;;;12.34;10.31;;;;;;;24.61;59.23;100026.31;449520;118;922989;-75
2022/08/18 01:56:48;;;;;;;11.63;10.72;;;;;;;24.60;59.23;100031.06;449518;116;922703;-74
2022/08/18 01:57:51;;;;;;;11.29;10.29;;;;;;;24.61;59.28;100027.14;449511;118;922624;-74
2022/08/18 01:58:55;;;;;;;11.83;10.86;;;;;;;24.61;59.27;100037.47;449442;118;922795;-75
2022/08/18 01:59:59;;;;;;;11.35;10.31;;;;;;;24.61;59.31;100038.29;449359;117;930494;-74
2022/08/18 02:01:04;;;;;;;12.09;11.06;;;;;;;24.63;59.30;100032.41;449426;116;922879;-75
2022/08/18 02:02:08;;;;;;;11.70;10.69;;;;;;;24.64;59.29;100028.48;449389;117;922688;-74
2022/08/18 02:03:13;;;;;;;11.38;10.39;;;;;;;24.63;59.28;100033.23;448692;117;922951;-74
2022/08/18 02:04:17;;;;;;;11.43;10.54;;;;;;;24.63;59.28;100037.98;449531;118;922592;-74
2022/08/18 02:05:26;;;;;;;12.36;11.24;;;;;;;24.63;59.28;100040.77;450135;116;922637;-74
2022/08/18 02:06:32;;;;;;;11.73;10.84;;;;;;;24.62;59.25;100039.94;455136;116;922556;-74
2022/08/18 02:07:37;;;;;;;12.44;11.29;;;;;;;24.63;59.22;100040.77;455489;116;922622;-74
2022/08/18 02:08:40;;;;;;;11.72;10.80;;;;;;;24.62;59.27;100045.52;455554;116;922598;-75
2022/08/18 02:09:45;;;;;;;11.32;10.33;;;;;;;24.62;59.25;100045.52;455465;116;922754;-74
2022/08/18 02:10:50;;;;;;;10.99;9.98;;;;;;;24.62;59.23;100050.27;455344;116;922602;-74
2022/08/18 02:11:54;;;;;;;12.07;11.17;;;;;;;24.61;59.18;100045.83;455657;116;922597;-74
2022/08/18 02:12:58;;;;;;;11.88;10.96;;;;;;;24.59;59.19;100046.14;455506;116;922667;-75
2022/08/18 02:14:01;;;;;;;11.50;10.50;;;;;;;24.59;59.24;100050.92;455585;116;930343;-75
2022/08/18 02:15:06;;;;;;;12.77;11.74;;;;;;;24.58;59.20;100043.70;456011;116;922933;-74
2022/08/18 02:16:10;;;;;;;12.18;10.79;;;;;;;24.57;59.20;100042.88;457177;114;922885;-74
2022/08/18 02:17:13;;;;;;;11.05;10.17;;;;;;;24.57;59.20;100037.30;457397;115;922619;-74
2022/08/18 02:18:19;;;;;;;12.43;11.21;;;;;;;24.59;59.25;100039.77;457414;116;923141;-73
2022/08/18 02:19:24;;;;;;;13.15;11.98;;;;;;;24.59;59.25;100034.98;455595;116;922602;-74
2022/08/18 02:20:28;;;;;;;12.66;11.64;;;;;;;24.60;59.16;100035.81;457282;115;922780;-74
2022/08/18 02:21:31;;;;;;;12.74;11.53;;;;;;;24.61;59.06;100043.04;457415;114;922600;-75
2022/08/18 02:22:34;;;;;;;13.69;11.86;;;;;;;24.61;59.05;100043.04;457339;116;922482;-75
2022/08/18 02:23:38;;;;;;;13.69;12.53;;;;;;;24.60;58.95;100039.42;457346;115;923265;-75
2022/08/18 02:24:43;;;;;;;12.53;11.54;;;;;;;24.59;58.98;100042.56;457210;115;923509;-75
2022/08/18 02:25:46;;;;;;;12.81;11.82;;;;;;;24.57;59.01;100044.84;457295;115;922649;-75
2022/08/18 02:26:49;;;;;;;13.06;11.82;;;;;;;24.55;59.04;100039.58;457342;114;922573;-75
2022/08/18 02:27:52;;;;;;;12.43;11.41;;;;;;;24.55;59.03;100038.75;457328;116;922604;-75
2022/08/18 02:28:55;;;;;;;11.86;10.95;;;;;;;24.53;59.04;100033.52;457328;116;922586;-75
2022/08/18 02:29:59;;;;;;;13.01;12.09;;;;;;;24.52;59.10;100043.02;458754;115;930273;-75
2022/08/18 02:31:08;;;;;;;13.25;12.18;;;;;;;24.48;59.11;100034.45;458070;115;922642;-75
2022/08/18 02:32:13;;;;;;;13.24;12.03;;;;;;;24.48;59.16;100040.02;457001;116;922537;-75
2022/08/18 02:33:16;;;;;;;12.76;11.74;;;;;;;24.46;59.26;100042.33;457317;115;930351;-75
2022/08/18 02:34:19;;;;;;;13.34;12.12;;;;;;;24.46;59.32;100039.55;464297;113;922584;-75
2022/08/18 02:35:22;;;;;;;13.51;12.15;;;;;;;24.45;59.41;100040.67;466528;113;922729;-75
2022/08/18 02:36:28;;;;;;;12.75;11.59;;;;;;;24.44;59.46;100041.81;466269;113;922689;-75
2022/08/18 02:37:31;;;;;;;12.76;11.36;;;;;;;24.44;59.51;100039.03;466442;113;922484;-75
2022/08/18 02:38:34;;;;;;;12.27;11.38;;;;;;;24.44;59.57;100036.24;466345;113;930405;-75
2022/08/18 02:39:38;;;;;;;12.82;11.41;;;;;;;24.45;59.56;100040.67;466489;113;922599;-75
2022/08/18 02:40:41;;;;;;;12.26;11.21;;;;;;;24.46;59.59;100038.72;466463;113;923096;-75
2022/08/18 02:41:44;;;;;;;12.76;11.58;;;;;;;24.46;59.61;100039.55;466438;113;922596;-75
2022/08/18 02:42:47;;;;;;;12.91;11.78;;;;;;;24.46;59.65;100036.75;466453;113;922569;-75
2022/08/18 02:43:50;;;;;;;12.41;11.14;;;;;;;24.47;59.68;100035.62;466541;113;922648;-75
2022/08/18 02:44:53;;;;;;;13.64;12.04;;;;;;;24.47;59.68;100035.62;466502;113;922554;-75
2022/08/18 02:45:57;;;;;;;13.42;12.41;;;;;;;24.50;59.71;100028.56;466472;113;922627;-75
2022/08/18 02:47:00;;;;;;;12.96;11.93;;;;;;;24.51;59.61;100036.61;466450;113;922816;-75
2022/08/18 02:48:04;;;;;;;12.49;11.56;;;;;;;24.53;59.59;100030.73;466364;113;922975;-75
2022/08/18 02:49:08;;;;;;;12.44;11.39;;;;;;;24.55;59.61;100033.17;466274;113;930248;-75
2022/08/18 02:50:12;;;;;;;12.51;11.43;;;;;;;24.56;59.60;100030.07;466339;113;922617;-75
2022/08/18 02:51:17;;;;;;;14.28;12.41;;;;;;;24.59;59.70;100036.98;466388;113;922576;-75
2022/08/18 02:52:20;;;;;;;12.21;11.25;;;;;;;24.60;59.70;100035.81;466443;113;922522;-75
2022/08/18 02:53:23;;;;;;;12.58;11.47;;;;;;;24.62;59.71;100045.52;466505;113;922852;-75
2022/08/18 02:54:26;;;;;;;13.38;12.08;;;;;;;24.64;59.72;100040.45;466375;113;922643;-75
2022/08/18 02:55:29;;;;;;;13.56;11.94;;;;;;;24.67;59.69;100044.55;466450;113;930344;-75
2022/08/18 02:56:35;;;;;;;13.74;12.74;;;;;;;24.67;59.66;100042.59;466268;113;922926;-75
2022/08/18 02:57:45;;;;;;;12.47;11.53;;;;;;;24.68;59.65;100038.66;466151;113;922595;-75
2022/08/18 02:58:53;;;;;;;12.74;11.73;;;;;;;24.70;59.60;100038.34;466282;113;922957;-75
2022/08/18 02:59:56;;;;;;;13.62;12.52;;;;;;;24.72;59.53;100044.41;466274;113;922560;-75
2022/08/18 03:01:01;;;;;;;13.42;12.21;;;;;;;24.73;59.48;100034.90;466249;113;922656;-75
2022/08/18 03:02:06;;;;;;;13.23;12.30;;;;;;;24.74;59.37;100054.11;466482;113;922859;-75
2022/08/18 03:03:12;;;;;;;13.56;12.47;;;;;;;24.75;59.28;100052.14;466265;113;922543;-75
2022/08/18 03:04:18;;;;;;;13.48;12.52;;;;;;;24.74;59.20;100048.53;466272;113;922631;-75
2022/08/18 03:05:21;;;;;;;14.63;13.39;;;;;;;24.74;59.09;100051.31;461881;113;923049;-75
2022/08/18 03:06:26;;;;;;;12.76;11.82;;;;;;;24.74;59.03;100050.49;457209;114;922686;-75
2022/08/18 03:07:29;;;;;;;13.34;12.19;;;;;;;24.72;59.01;100049.98;457242;115;922579;-75
2022/08/18 03:08:33;;;;;;;14.30;13.08;;;;;;;24.71;58.94;100046.37;457320;116;922948;-75
2022/08/18 03:09:36;;;;;;;13.82;12.41;;;;;;;24.71;58.97;100054.73;457311;116;922895;-75
2022/08/18 03:10:38;;;;;;;16.44;13.32;;;;;;;24.70;58.91;100055.08;457352;115;922630;-75
2022/08/18 03:11:42;;;;;;;13.99;12.79;;;;;;;24.69;58.92;100050.64;457345;114;922584;-75
2022/08/18 03:12:46;;;;;;;14.44;13.12;;;;;;;24.69;58.89;100053.42;457295;116;922667;-75
2022/08/18 03:13:49;;;;;;;13.41;12.39;;;;;;;24.68;58.92;100046.20;457424;116;922947;-75
2022/08/18 03:14:52;;;;;;;13.37;12.29;;;;;;;24.66;58.89;100052.09;457337;115;922897;-76
2022/08/18 03:15:56;;;;;;;13.59;12.51;;;;;;;24.66;58.96;100052.09;457255;116;922543;-75
2022/08/18 03:17:02;;;;;;;14.29;13.19;;;;;;;24.66;58.93;100048.47;457084;116;922564;-75
2022/08/18 03:18:05;;;;;;;13.30;12.26;;;;;;;24.65;58.87;100053.22;457116;116;923084;-75
2022/08/18 03:19:08;;;;;;;13.58;12.41;;;;;;;24.65;58.91;100049.61;457284;116;922503;-75
2022/08/18 03:20:12;;;;;;;13.96;12.75;;;;;;;24.64;58.95;100057.19;456975;116;922661;-75
2022/08/18 03:21:20;;;;;;;13.75;12.39;;;;;;;24.64;58.97;100059.97;457116;116;922613;-75
2022/08/18 03:22:24;;;;;;;14.35;13.20;;;;;;;24.64;59.00;100059.97;457023;116;922624;-75
2022/08/18 03:23:29;;;;;;;13.35;12.29;;;;;;;24.64;58.95;100061.94;457216;114;922692;-75
2022/08/18 03:24:33;;;;;;;13.85;12.13;;;;;;;24.64;58.92;100059.97;457143;116;923486;-75
2022/08/18 03:25:45;;;;;;;13.59;12.19;;;;;;;24.65;58.98;100067.16;457091;116;930398;-75
2022/08/18 03:26:48;;;;;;;13.87;12.61;;;;;;;24.65;58.95;100060.77;456384;116;922574;-75
2022/08/18 03:27:51;;;;;;;14.27;12.89;;;;;;;24.64;58.95;100062.76;457218;116;922663;-75
2022/08/18 03:28:56;;;;;;;14.23;12.89;;;;;;;24.64;59.00;100057.19;457112;116;923039;-75
2022/08/18 03:30:01;;;;;;;14.51;13.15;;;;;;;24.64;58.94;100054.39;455454;116;922691;-75
2022/08/18 03:31:04;;;;;;;14.08;12.72;;;;;;;24.64;58.98;100056.36;455943;114;923036;-75
2022/08/18 03:32:07;;;;;;;13.70;12.41;;;;;;;24.63;58.95;100057.49;457234;116;930345;-75
2022/08/18 03:33:10;;;;;;;12.79;11.81;;;;;;;24.63;58.97;100054.70;457348;116;922717;-75
2022/08/18 03:34:14;;;;;;;13.19;12.02;;;;;;;24.63;58.98;100057.49;463276;113;922569;-75
2022/08/18 03:35:17;;;;;;;13.69;12.61;;;;;;;24.63;59.04;100057.49;466415;113;923002;-75
2022/08/18 03:36:24;;;;;;;15.12;12.55;;;;;;;24.64;59.09;100053.56;466431;113;922664;-75
2022/08/18 03:37:27;;;;;;;12.81;11.75;;;;;;;24.64;59.10;100057.19;466272;113;922543;-75
2022/08/18 03:38:30;;;;;;;13.84;12.61;;;;;;;24.66;59.17;100056.84;466505;113;922549;-75
2022/08/18 03:39:33;;;;;;;13.80;12.71;;;;;;;24.65;59.15;100061.59;466483;113;922560;-75
2022/08/18 03:40:36;;;;;;;14.34;12.71;;;;;;;24.66;59.10;100054.05;466465;113;922564;-75
2022/08/18 03:41:42;;;;;;;13.54;12.25;;;;;;;24.66;59.08;100057.66;466454;113;923244;-76
2022/08/18 03:42:47;;;;;;;13.64;12.37;;;;;;;24.67;59.01;100055.70;465748;113;922717;-76
2022/08/18 03:43:50;;;;;;;13.31;12.10;;;;;;;24.67;59.02;100058.48;466499;113;922673;-75
2022/08/18 03:44:54;;;;;;;14.21;13.12;;;;;;;24.66;59.01;100054.05;466346;113;922655;-75
2022/08/18 03:46:05;;;;;;;13.10;11.91;;;;;;;24.66;59.02;100056.84;466394;113;930244;-75
2022/08/18 03:47:10;;;;;;;14.44;12.39;;;;;;;24.66;59.06;100060.45;466288;113;922642;-75
2022/08/18 03:48:13;;;;;;;13.54;12.46;;;;;;;24.66;59.12;100065.20;466319;113;922628;-75
2022/08/18 03:49:17;;;;;;;13.12;12.17;;;;;;;24.67;59.10;100061.27;466401;113;930309;-75
2022/08/18 03:50:23;;;;;;;13.74;12.58;;;;;;;24.69;59.16;100067.37;466311;113;922825;-75
2022/08/18 03:51:30;;;;;;;13.11;12.14;;;;;;;24.70;59.24;100058.66;463633;113;930265;-72
2022/08/18 03:52:36;;;;;;;13.13;12.19;;;;;;;24.71;59.19;100070.63;463463;114;923021;-73
2022/08/18 03:53:40;;;;;;;14.21;12.97;;;;;;;24.72;59.23;100066.71;463319;114;922774;-73
2022/08/18 03:54:43;;;;;;;13.69;12.73;;;;;;;24.73;59.11;100057.20;463656;114;923037;-73
2022/08/18 03:55:46;;;;;;;13.95;12.71;;;;;;;24.74;59.12;100070.83;463681;114;922714;-74
2022/08/18 03:56:49;;;;;;;13.93;12.72;;;;;;;24.75;59.11;100071.66;463645;114;922599;-74
2022/08/18 03:57:55;;;;;;;13.56;12.50;;;;;;;24.75;59.09;100072.48;463684;114;922561;-74
2022/08/18 03:59:01;;;;;;;14.66;12.49;;;;;;;24.76;59.11;100073.28;463528;114;922589;-74
2022/08/18 04:00:05;;;;;;;14.32;13.09;;;;;;;24.77;59.12;100074.93;463525;114;922529;-74
2022/08/18 04:01:09;;;;;;;14.27;13.09;;;;;;;24.77;59.09;100066.56;463629;114;922816;-74
2022/08/18 04:02:13;;;;;;;13.98;12.66;;;;;;;24.77;59.07;100063.77;463672;114;922767;-75
2022/08/18 04:03:16;;;;;;;14.33;12.96;;;;;;;24.78;59.07;100065.42;463663;114;922720;-74
2022/08/18 04:04:22;;;;;;;13.49;12.47;;;;;;;24.77;59.09;100066.56;463776;114;922696;-74
2022/08/18 04:05:26;;;;;;;13.49;12.31;;;;;;;24.77;59.10;100063.77;459082;114;922582;-74
2022/08/18 04:06:32;;;;;;;14.56;13.11;;;;;;;24.77;59.13;100069.36;455589;114;922607;-74
2022/08/18 04:07:35;;;;;;;14.84;12.82;;;;;;;24.78;59.14;100065.42;455431;116;923215;-74
2022/08/18 04:08:38;;;;;;;13.66;12.58;;;;;;;24.77;59.24;100059.02;455633;116;923082;-74
2022/08/18 04:09:42;;;;;;;14.56;12.97;;;;;;;24.78;59.22;100066.25;455629;116;922461;-74
2022/08/18 04:10:45;;;;;;;13.41;12.20;;;;;;;24.79;59.16;100061.50;455578;116;922683;-74
2022/08/18 04:11:48;;;;;;;14.04;12.93;;;;;;;24.79;59.13;100065.11;455545;114;922618;-74
2022/08/18 04:12:52;;;;;;;14.16;12.96;;;;;;;24.79;59.20;100067.91;455533;116;923081;-74
2022/08/18 04:13:58;;;;;;;16.17;13.65;;;;;;;24.79;59.25;100067.91;455577;116;922645;-74
2022/08/18 04:15:03;;;;;;;14.52;13.22;;;;;;;24.80;59.31;100063.15;455182;116;922618;-74
2022/08/18 04:16:07;;;;;;;14.27;12.82;;;;;;;24.81;59.30;100068.38;455123;116;922608;-74
2022/08/18 04:17:10;;;;;;;13.20;12.11;;;;;;;24.81;59.23;100075.95;455222;116;922584;-75
2022/08/18 04:18:13;;;;;;;13.91;12.93;;;;;;;24.83;59.27;100073.65;455233;116;922582;-75
2022/08/18 04:19:17;;;;;;;13.91;12.52;;;;;;;24.83;59.24;100073.65;455233;116;922546;-75
2022/08/18 04:20:23;;;;;;;14.10;12.89;;;;;;;24.85;59.24;100076.95;454125;116;922630;-75
2022/08/18 04:21:26;;;;;;;13.24;11.61;;;;;;;24.85;59.26;100074.16;455205;116;922664;-74
2022/08/18 04:22:32;;;;;;;13.73;12.59;;;;;;;24.86;59.24;100073.02;455187;116;922599;-75
2022/08/18 04:23:39;;;;;;;14.24;12.93;;;;;;;24.87;59.28;100081.05;455004;116;922782;-75
2022/08/18 04:24:44;;;;;;;14.61;13.33;;;;;;;24.90;59.26;100068.47;454712;116;922615;-74
2022/08/18 04:25:57;;;;;;;13.99;12.93;;;;;;;24.91;59.26;100075.70;455103;116;922537;-74
2022/08/18 04:27:03;;;;;;;15.34;12.26;;;;;;;24.93;59.27;100078.97;454867;116;930392;-74
2022/08/18 04:28:06;;;;;;;14.70;13.08;;;;;;;24.95;59.23;100076.69;455007;116;922714;-74
2022/08/18 04:29:11;;;;;;;13.86;12.34;;;;;;;24.96;59.19;100078.34;455190;116;922626;-74
2022/08/18 04:30:14;;;;;;;13.12;12.13;;;;;;;24.99;59.09;100079.64;452755;116;922675;-74
2022/08/18 04:31:22;;;;;;;13.91;12.61;;;;;;;25.03;59.12;100081.45;455009;114;922573;-74
2022/08/18 04:32:23;;;;;;;14.71;13.44;;;;;;;25.03;59.12;100081.45;455187;116;922674;-75
2022/08/18 04:33:28;;;;;;;14.12;12.76;;;;;;;25.05;58.96;100079.18;454960;116;922610;-75
2022/08/18 04:34:32;;;;;;;15.14;13.93;;;;;;;25.05;58.97;100076.39;447973;114;922835;-75
2022/08/18 04:35:35;;;;;;;13.65;12.49;;;;;;;25.08;58.80;100080.52;447729;118;930385;-75
2022/08/18 04:36:40;;;;;;;13.73;12.64;;;;;;;25.08;58.87;100080.52;447731;116;930330;-75
2022/08/18 04:37:44;;;;;;;13.63;12.50;;;;;;;25.08;58.86;100081.34;447761;118;923127;-75
2022/08/18 04:38:47;;;;;;;13.51;12.58;;;;;;;25.08;58.86;100075.77;447807;118;922556;-75
2022/08/18 04:39:50;;;;;;;13.51;12.50;;;;;;;25.09;58.86;100074.59;447850;118;922645;-74
2022/08/18 04:40:53;;;;;;;14.40;11.69;;;;;;;25.11;58.89;100075.09;447871;118;923670;-75
2022/08/18 04:41:58;;;;;;;13.57;11.46;;;;;;;25.12;58.89;100071.17;447840;118;922655;-74
2022/08/18 04:43:01;;;;;;;13.01;11.98;;;;;;;25.14;58.92;100079.22;447685;118;923096;-74
2022/08/18 04:44:07;;;;;;;13.64;11.95;;;;;;;25.16;58.89;100076.91;447808;118;930343;-74
2022/08/18 04:45:10;;;;;;;13.18;12.07;;;;;;;25.17;58.88;100082.17;447676;118;922636;-74
2022/08/18 04:46:13;;;;;;;13.91;12.87;;;;;;;25.19;58.84;100082.69;447777;116;923512;-74
2022/08/18 04:47:17;;;;;;;13.54;12.53;;;;;;;25.20;58.86;100081.52;447795;118;930745;-75
2022/08/18 04:48:20;;;;;;;14.29;12.58;;;;;;;25.23;58.87;100082.84;447887;118;922623;-75
2022/08/18 04:49:25;;;;;;;13.57;12.46;;;;;;;25.23;58.79;100086.47;447683;118;922555;-74
2022/08/18 04:50:29;;;;;;;15.05;13.66;;;;;;;25.24;58.75;100085.33;447766;118;923023;-74
2022/08/18 04:51:32;;;;;;;13.94;12.61;;;;;;;25.25;58.74;100081.36;448695;118;922565;-74
2022/08/18 04:53:59;;;;;;;14.26;12.86;;;;;;;25.27;58.75;100081.05;449381;118;922593;-76
2022/08/18 04:55:03;;;;;;;14.29;12.92;;;;;;;25.27;58.75;100084.66;449496;117;922655;-74
2022/08/18 04:56:06;;;;;;;13.96;12.73;;;;;;;25.29;58.70;100084.34;449382;116;930832;-74
2022/08/18 04:57:17;;;;;;;13.53;12.52;;;;;;;25.29;58.67;100082.38;449456;118;930314;-74
2022/08/18 04:58:23;;;;;;;13.78;12.52;;;;;;;25.30;58.58;100086.82;449352;118;923728;-75
2022/08/18 04:59:26;;;;;;;13.83;12.39;;;;;;;25.30;58.56;100086.82;449330;118;922587;-75